Time;durP1;ratioP1;P1;durP2;ratioP2;P2;SDS_P1;SDS_P2;PMS_P1;PMS_P2;Temp;Humidity;BMP_temperature;BMP_pressure;BME280_temperature;BME280_humidity;BME280_pressure;Samples;Min_cycle;Max_cycle;Signal;HPM_P1;HPM_P2
2021/06/27 00:01:10;;;;;;;5.82;3.50;;;23.50;47.10;;;;;;5092688;28;20016;-73
2021/06/27 00:03:36;;;;;;;5.18;3.60;;;23.40;47.10;;;;;;5088267;28;20074;-72
2021/06/27 00:06:03;;;;;;;3.45;3.15;;;23.40;47.10;;;;;;5071437;28;20327;-73
2021/06/27 00:08:29;;;;;;;4.00;3.28;;;23.30;47.00;;;;;;5082248;28;20024;-72
2021/06/27 00:10:57;;;;;;;3.88;3.47;;;23.30;47.20;;;;;;5092593;28;20378;-73
2021/06/27 00:13:23;;;;;;;5.63;3.35;;;23.20;47.50;;;;;;5091584;28;20020;-73
2021/06/27 00:15:50;;;;;;;6.60;3.80;;;23.20;47.50;;;;;;5091814;28;20482;-72
2021/06/27 00:18:19;;;;;;;3.92;3.45;;;23.10;47.60;;;;;;5092540;28;20094;-72
2021/06/27 00:20:46;;;;;;;3.40;3.08;;;23.10;47.70;;;;;;5094901;28;20035;-73
2021/06/27 00:23:14;;;;;;;10.43;3.20;;;23.00;47.80;;;;;;5096192;28;20028;-73
2021/06/27 00:25:42;;;;;;;5.20;4.07;;;23.00;48.00;;;;;;5088155;28;20029;-72
2021/06/27 00:28:08;;;;;;;6.70;3.60;;;23.00;48.00;;;;;;5075749;28;20027;-72
2021/06/27 00:30:36;;;;;;;8.18;4.32;;;23.00;48.10;;;;;;5075835;28;20386;-73
2021/06/27 00:33:02;;;;;;;4.20;3.63;;;22.90;48.30;;;;;;5076725;28;20012;-73
2021/06/27 00:35:29;;;;;;;10.52;3.90;;;22.90;48.40;;;;;;5095815;28;20050;-72
2021/06/27 00:37:55;;;;;;;5.53;4.10;;;22.80;48.50;;;;;;5095875;28;20106;-72
2021/06/27 00:40:25;;;;;;;10.52;3.97;;;22.80;48.90;;;;;;5095833;28;20028;-72
2021/06/27 00:42:51;;;;;;;9.90;3.85;;;22.80;48.80;;;;;;5095621;28;20050;-72
2021/06/27 00:45:19;;;;;;;8.02;4.07;;;22.70;49.00;;;;;;5095729;28;20032;-72
2021/06/27 00:47:47;;;;;;;6.00;3.90;;;22.70;49.10;;;;;;5086560;28;20029;-72
2021/06/27 00:50:17;;;;;;;5.20;4.00;;;22.60;49.10;;;;;;5074274;28;20041;-73
2021/06/27 00:52:43;;;;;;;6.47;4.25;;;22.60;49.50;;;;;;5075417;28;20024;-72
2021/06/27 00:55:10;;;;;;;5.35;4.13;;;22.60;49.40;;;;;;5075323;28;20041;-72
2021/06/27 00:57:38;;;;;;;4.28;3.85;;;22.50;49.70;;;;;;5085714;28;20043;-73
2021/06/27 01:00:11;;;;;;;6.68;4.15;;;22.50;50.10;;;;;;5095485;28;20024;-72
2021/06/27 01:02:38;;;;;;;5.05;4.20;;;22.50;50.00;;;;;;5094215;28;20024;-73
2021/06/27 01:05:07;;;;;;;4.63;3.80;;;22.40;50.00;;;;;;5075242;28;20039;-72
2021/06/27 01:07:32;;;;;;;4.47;3.65;;;22.40;50.00;;;;;;5075059;28;20020;-72
2021/06/27 01:09:58;;;;;;;5.55;3.47;;;22.30;50.20;;;;;;5075102;28;20028;-72
2021/06/27 01:12:24;;;;;;;6.38;3.85;;;22.30;50.40;;;;;;5075029;28;20417;-72
2021/06/27 01:14:50;;;;;;;4.75;3.55;;;22.20;50.40;;;;;;5085815;28;20493;-73
2021/06/27 01:17:16;;;;;;;4.95;3.75;;;22.20;50.80;;;;;;5074906;28;20060;-72
2021/06/27 01:19:42;;;;;;;6.88;4.03;;;22.20;50.90;;;;;;5074950;28;20494;-72
2021/06/27 01:22:08;;;;;;;4.80;3.03;;;22.20;50.90;;;;;;5074804;28;20531;-72
2021/06/27 01:24:33;;;;;;;6.72;4.07;;;22.10;51.00;;;;;;5073489;28;20048;-72
2021/06/27 01:26:59;;;;;;;7.93;3.90;;;22.00;50.90;;;;;;5078555;28;20470;-73
2021/06/27 01:29:25;;;;;;;9.40;4.35;;;22.00;51.20;;;;;;5074713;28;20017;-72
2021/06/27 01:31:51;;;;;;;5.20;4.20;;;22.00;51.60;;;;;;5072825;28;20024;-72
2021/06/27 01:34:17;;;;;;;4.85;3.70;;;21.90;51.60;;;;;;5073292;28;20051;-73
2021/06/27 01:36:43;;;;;;;7.57;4.72;;;21.90;51.60;;;;;;5076697;28;20488;-72
2021/06/27 01:39:09;;;;;;;6.90;4.78;;;21.90;51.60;;;;;;5093370;28;20024;-73
2021/06/27 01:41:35;;;;;;;7.00;4.22;;;21.90;52.20;;;;;;5094682;28;20054;-72
2021/06/27 01:44:01;;;;;;;7.90;4.63;;;21.90;52.10;;;;;;5093034;28;20032;-73
2021/06/27 01:46:26;;;;;;;9.25;4.60;;;21.80;52.10;;;;;;5094467;28;20036;-73
2021/06/27 01:48:52;;;;;;;9.07;4.93;;;21.80;52.60;;;;;;5093195;28;20153;-72
2021/06/27 01:51:18;;;;;;;9.70;5.07;;;21.80;52.70;;;;;;5093068;28;20493;-72
2021/06/27 01:53:44;;;;;;;8.05;4.90;;;21.80;52.60;;;;;;5094469;28;20567;-72
2021/06/27 01:56:09;;;;;;;5.97;4.50;;;21.70;52.70;;;;;;5083562;28;20089;-72
2021/06/27 01:58:45;;;;;;;5.45;4.05;;;21.70;52.70;;;;;;5074003;28;20028;-72
2021/06/27 02:01:17;;;;;;;7.35;4.47;;;21.70;53.00;;;;;;5074076;28;20036;-72
2021/06/27 02:03:44;;;;;;;6.13;4.38;;;21.70;53.40;;;;;;5074057;28;20017;-72
2021/06/27 02:06:10;;;;;;;6.00;4.13;;;21.70;53.50;;;;;;5073982;28;20113;-72
2021/06/27 02:08:39;;;;;;;5.95;4.28;;;21.60;53.00;;;;;;5073848;28;20025;-72
2021/06/27 02:11:07;;;;;;;6.75;4.82;;;21.60;53.50;;;;;;5073885;28;20490;-72
2021/06/27 02:13:33;;;;;;;6.95;4.25;;;21.60;53.50;;;;;;5087095;28;20485;-72
2021/06/27 02:15:59;;;;;;;11.90;4.10;;;21.50;53.40;;;;;;5094057;28;20024;-72
2021/06/27 02:18:31;;;;;;;5.55;4.32;;;21.50;53.60;;;;;;5094030;28;20069;-72
2021/06/27 02:20:59;;;;;;;4.82;4.00;;;21.50;53.70;;;;;;5092658;28;20043;-72
2021/06/27 02:23:25;;;;;;;5.75;4.65;;;21.50;53.60;;;;;;5092631;28;20505;-72
2021/06/27 02:25:51;;;;;;;7.40;4.85;;;21.40;53.90;;;;;;5086959;28;20156;-72
2021/06/27 02:28:17;;;;;;;6.82;4.72;;;21.40;54.00;;;;;;5081672;28;20024;-72
2021/06/27 02:30:43;;;;;;;6.43;4.28;;;21.40;54.00;;;;;;5092525;28;20028;-72
2021/06/27 02:33:09;;;;;;;12.60;4.25;;;21.40;53.90;;;;;;5093701;28;20031;-72
2021/06/27 02:35:34;;;;;;;6.43;4.55;;;21.40;54.00;;;;;;5093704;28;20028;-72
2021/06/27 02:38:04;;;;;;;6.78;4.88;;;21.30;54.30;;;;;;5089304;28;20025;-72
2021/06/27 02:40:31;;;;;;;6.60;4.70;;;21.30;54.50;;;;;;5073403;28;20021;-72
2021/06/27 02:42:56;;;;;;;4.75;4.25;;;21.30;54.40;;;;;;5072717;28;20031;-72
2021/06/27 02:45:22;;;;;;;4.80;3.67;;;21.30;54.40;;;;;;5072996;28;20359;-72
2021/06/27 02:47:48;;;;;;;7.63;4.13;;;21.30;54.40;;;;;;5073152;28;20036;-72
2021/06/27 02:50:15;;;;;;;4.85;3.88;;;21.30;54.50;;;;;;5073068;28;20399;-72
2021/06/27 02:52:42;;;;;;;5.10;4.32;;;21.20;54.60;;;;;;5073246;28;20021;-72
2021/06/27 02:55:10;;;;;;;8.60;5.03;;;21.20;54.60;;;;;;5072098;28;20094;-73
2021/06/27 02:57:39;;;;;;;8.35;5.10;;;21.20;54.70;;;;;;5073151;28;20358;-72
2021/06/27 03:00:07;;;;;;;7.18;4.90;;;21.20;54.80;;;;;;5073085;28;20103;-72
2021/06/27 03:02:33;;;;;;;4.32;3.92;;;21.10;55.20;;;;;;5071746;28;20111;-72
2021/06/27 03:04:59;;;;;;;7.28;4.35;;;21.20;55.00;;;;;;5073026;28;20120;-72
2021/06/27 03:07:24;;;;;;;4.78;4.00;;;21.20;55.10;;;;;;5087225;28;20039;-72
2021/06/27 03:09:50;;;;;;;4.97;3.40;;;21.10;55.20;;;;;;5093180;28;20052;-73
2021/06/27 03:12:16;;;;;;;4.63;4.15;;;21.10;55.10;;;;;;5093028;28;20107;-72
2021/06/27 03:14:42;;;;;;;5.22;4.30;;;21.10;55.30;;;;;;5093215;28;20024;-72
2021/06/27 03:17:08;;;;;;;7.30;4.45;;;21.10;55.50;;;;;;5093118;28;20046;-72
2021/06/27 03:19:34;;;;;;;6.03;4.13;;;21.00;55.60;;;;;;5093099;28;20478;-72
2021/06/27 03:22:00;;;;;;;4.13;3.72;;;21.00;55.80;;;;;;5093077;28;20546;-72
2021/06/27 03:24:25;;;;;;;6.50;4.72;;;21.00;55.70;;;;;;5093076;28;20027;-72
2021/06/27 03:26:51;;;;;;;6.13;4.63;;;21.00;55.90;;;;;;5078222;28;20029;-72
2021/06/27 03:29:17;;;;;;;4.10;3.70;;;21.00;55.70;;;;;;5091569;28;20389;-72
2021/06/27 03:31:43;;;;;;;8.07;4.82;;;21.00;55.80;;;;;;5078430;28;20471;-72
2021/06/27 03:34:09;;;;;;;7.20;4.35;;;21.00;56.50;;;;;;5080903;28;20024;-73
2021/06/27 03:36:35;;;;;;;6.93;4.50;;;21.00;56.40;;;;;;5092907;28;20020;-73
2021/06/27 03:39:13;;;;;;;4.45;3.97;;;21.00;56.50;;;;;;5093003;28;20056;-73
2021/06/27 03:41:57;;;;;;;5.45;3.88;;;21.10;56.30;;;;;;5092916;28;20024;-72
2021/06/27 03:44:24;;;;;;;4.60;3.97;;;21.10;56.40;;;;;;5091650;28;20024;-72
2021/06/27 03:46:51;;;;;;;5.13;4.25;;;21.10;56.40;;;;;;5092814;28;20078;-72
2021/06/27 03:49:17;;;;;;;5.30;4.35;;;21.10;56.80;;;;;;5092479;28;20028;-73
2021/06/27 03:51:44;;;;;;;7.38;4.47;;;21.20;57.20;;;;;;5076260;28;20024;-72
2021/06/27 03:54:10;;;;;;;5.82;4.55;;;21.20;57.10;;;;;;5072513;28;20027;-72
2021/06/27 03:56:36;;;;;;;8.85;4.05;;;21.20;57.20;;;;;;5076694;28;20029;-72
2021/06/27 03:59:03;;;;;;;4.35;3.95;;;21.30;56.90;;;;;;5076435;28;20092;-73
2021/06/27 04:01:29;;;;;;;5.75;4.32;;;21.30;56.80;;;;;;5075014;28;20024;-73
2021/06/27 04:03:55;;;;;;;5.57;4.13;;;21.30;56.70;;;;;;5074996;28;20020;-72
2021/06/27 04:06:21;;;;;;;7.47;4.50;;;21.40;56.70;;;;;;5076267;28;20388;-73
2021/06/27 04:08:46;;;;;;;4.53;3.67;;;21.40;56.70;;;;;;5076135;28;20442;-72
2021/06/27 04:11:12;;;;;;;5.05;3.80;;;21.40;56.60;;;;;;5093908;28;20024;-72
2021/06/27 04:13:38;;;;;;;7.32;4.32;;;21.50;56.70;;;;;;5094560;28;20077;-72
2021/06/27 04:16:05;;;;;;;5.82;4.03;;;21.50;56.70;;;;;;5095122;28;20111;-72
2021/06/27 04:18:32;;;;;;;7.70;3.88;;;21.60;56.70;;;;;;5096351;28;20073;-72
2021/06/27 04:20:58;;;;;;;6.55;3.55;;;21.60;56.60;;;;;;5094978;28;20473;-73
2021/06/27 04:23:26;;;;;;;5.13;3.90;;;21.60;56.60;;;;;;5094951;28;20548;-72
2021/06/27 04:25:52;;;;;;;5.75;4.15;;;21.70;56.60;;;;;;5090513;28;20024;-73
2021/06/27 04:28:19;;;;;;;8.27;4.88;;;21.70;56.50;;;;;;5075821;28;20031;-73
2021/06/27 04:30:45;;;;;;;8.95;5.38;;;21.80;56.60;;;;;;5075862;28;20493;-72
2021/06/27 04:33:11;;;;;;;8.07;4.70;;;21.80;56.50;;;;;;5074535;28;20024;-73
2021/06/27 04:35:40;;;;;;;9.48;4.88;;;21.80;56.70;;;;;;5075647;28;20513;-73
2021/06/27 04:38:14;;;;;;;13.00;5.65;;;21.90;56.80;;;;;;5074684;28;20028;-73
2021/06/27 04:40:40;;;;;;;10.02;5.25;;;21.90;56.50;;;;;;5074416;28;20028;-72
2021/06/27 04:43:06;;;;;;;8.57;4.85;;;22.00;56.40;;;;;;5075663;28;20134;-72
2021/06/27 04:45:33;;;;;;;7.13;5.25;;;22.00;56.00;;;;;;5075550;28;20505;-73
2021/06/27 04:48:01;;;;;;;6.72;4.40;;;22.10;55.90;;;;;;5074128;28;20047;-72
2021/06/27 04:50:27;;;;;;;7.38;4.82;;;22.10;55.80;;;;;;5075156;28;20036;-72
2021/06/27 04:52:52;;;;;;;5.57;4.70;;;22.20;55.80;;;;;;5075437;28;20025;-73
2021/06/27 04:55:19;;;;;;;8.68;5.18;;;22.30;55.70;;;;;;5075449;28;20411;-72
2021/06/27 04:57:45;;;;;;;8.10;4.57;;;22.30;55.60;;;;;;5075270;28;20367;-73
2021/06/27 05:00:12;;;;;;;6.22;4.75;;;22.40;55.50;;;;;;5075304;28;20055;-72
2021/06/27 05:02:38;;;;;;;5.72;4.50;;;22.40;55.50;;;;;;5091851;28;20056;-72
2021/06/27 05:05:05;;;;;;;5.97;4.95;;;22.50;55.60;;;;;;5086756;28;20535;-73
2021/06/27 05:07:31;;;;;;;6.18;5.10;;;22.60;55.40;;;;;;5094280;28;20028;-73
2021/06/27 05:09:57;;;;;;;6.75;4.78;;;22.60;55.20;;;;;;5075041;28;20470;-72
2021/06/27 05:12:27;;;;;;;4.93;4.43;;;22.70;55.00;;;;;;5074999;28;20576;-72
2021/06/27 05:14:54;;;;;;;5.13;4.63;;;22.70;54.80;;;;;;5075007;28;20096;-73
2021/06/27 05:17:20;;;;;;;5.50;4.88;;;22.80;54.70;;;;;;5073773;28;20025;-72
2021/06/27 05:19:46;;;;;;;6.28;5.18;;;22.80;54.70;;;;;;5073634;28;20406;-72
2021/06/27 05:22:12;;;;;;;8.15;6.32;;;22.90;54.60;;;;;;5074914;28;20029;-73
2021/06/27 05:24:38;;;;;;;9.30;6.43;;;22.90;54.30;;;;;;5074750;28;20527;-73
2021/06/27 05:27:04;;;;;;;11.10;6.50;;;23.00;54.10;;;;;;5075309;28;20029;-73
2021/06/27 05:29:30;;;;;;;8.30;6.00;;;23.10;54.00;;;;;;5085479;28;20032;-73
2021/06/27 05:31:56;;;;;;;14.10;8.13;;;23.10;53.90;;;;;;5094890;28;20366;-73
2021/06/27 05:34:22;;;;;;;9.65;7.63;;;23.20;53.90;;;;;;5093529;28;20020;-73
2021/06/27 05:36:48;;;;;;;11.65;8.50;;;23.20;53.70;;;;;;5094806;28;20393;-73
2021/06/27 05:39:15;;;;;;;11.77;8.15;;;23.30;53.50;;;;;;5094779;28;20024;-73
2021/06/27 05:41:43;;;;;;;10.43;6.90;;;23.40;53.40;;;;;;5093403;28;20047;-73
2021/06/27 05:44:09;;;;;;;10.32;6.63;;;23.40;53.30;;;;;;5094550;28;20024;-72
2021/06/27 05:46:35;;;;;;;9.38;6.32;;;23.50;53.20;;;;;;5094532;28;20031;-72
2021/06/27 05:49:06;;;;;;;11.15;6.90;;;23.50;53.10;;;;;;5094334;28;20086;-73
2021/06/27 05:51:32;;;;;;;9.13;6.53;;;23.60;53.10;;;;;;5094374;28;20470;-72
2021/06/27 05:53:58;;;;;;;10.30;6.85;;;23.70;52.90;;;;;;5094381;28;20048;-72
2021/06/27 05:56:24;;;;;;;14.52;8.13;;;23.70;52.70;;;;;;5089685;28;20496;-72
2021/06/27 05:58:50;;;;;;;10.75;6.65;;;23.80;53.10;;;;;;5094236;28;20028;-73
2021/06/27 06:01:17;;;;;;;11.13;6.60;;;23.80;52.80;;;;;;5094272;28;20074;-72
2021/06/27 06:03:44;;;;;;;10.50;6.93;;;23.90;52.50;;;;;;5092667;28;20073;-72
2021/06/27 06:06:11;;;;;;;11.27;7.22;;;23.90;52.70;;;;;;5094005;28;20065;-72
2021/06/27 06:08:42;;;;;;;10.90;7.03;;;24.00;52.20;;;;;;5092697;28;20081;-73
2021/06/27 06:11:12;;;;;;;11.80;6.90;;;24.10;52.20;;;;;;5094084;28;20473;-72
2021/06/27 06:13:42;;;;;;;9.43;6.60;;;24.10;52.10;;;;;;5092191;28;20024;-72
2021/06/27 06:16:08;;;;;;;13.18;7.30;;;24.20;52.10;;;;;;5092714;28;20020;-72
2021/06/27 06:18:35;;;;;;;8.88;6.35;;;24.20;52.00;;;;;;5093871;28;20020;-73
2021/06/27 06:21:02;;;;;;;7.90;5.47;;;24.30;51.80;;;;;;5093826;28;20028;-72
2021/06/27 06:23:27;;;;;;;11.27;6.57;;;24.40;51.90;;;;;;5093862;28;20031;-72
2021/06/27 06:25:53;;;;;;;9.73;6.93;;;24.50;51.80;;;;;;5083424;28;20028;-72
2021/06/27 06:28:20;;;;;;;10.90;6.68;;;24.50;51.40;;;;;;5073494;28;20107;-73
2021/06/27 06:30:46;;;;;;;8.88;6.30;;;24.60;51.30;;;;;;5073465;28;20020;-73
2021/06/27 06:33:11;;;;;;;11.77;7.28;;;24.70;51.40;;;;;;5073348;28;20126;-73
2021/06/27 06:35:42;;;;;;;10.38;7.13;;;24.80;51.30;;;;;;5073456;28;20016;-73
2021/06/27 06:38:09;;;;;;;11.80;8.32;;;24.80;51.00;;;;;;5072072;28;20035;-73
2021/06/27 06:40:37;;;;;;;9.40;7.72;;;24.90;51.00;;;;;;5073193;28;20031;-73
2021/06/27 06:43:03;;;;;;;7.80;6.72;;;25.00;50.50;;;;;;5073218;28;20027;-73
2021/06/27 06:45:30;;;;;;;8.32;6.30;;;25.00;50.10;;;;;;5073115;28;20052;-73
2021/06/27 06:47:56;;;;;;;7.90;6.53;;;25.10;50.10;;;;;;5072184;28;20138;-72
2021/06/27 06:50:23;;;;;;;7.05;5.88;;;25.20;50.10;;;;;;5073064;28;20124;-73
2021/06/27 06:52:50;;;;;;;5.85;4.95;;;25.30;49.90;;;;;;5073070;28;20082;-72
2021/06/27 06:55:16;;;;;;;7.32;4.78;;;25.30;49.70;;;;;;5075090;28;20106;-73
2021/06/27 06:57:41;;;;;;;5.88;5.20;;;25.50;49.30;;;;;;5093166;28;20110;-73
2021/06/27 07:00:09;;;;;;;11.23;6.47;;;25.50;49.10;;;;;;5091974;28;20024;-73
2021/06/27 07:02:36;;;;;;;6.65;4.15;;;25.60;49.10;;;;;;5093333;28;20024;-73
2021/06/27 07:05:04;;;;;;;5.95;4.78;;;25.60;48.40;;;;;;5093113;28;20024;-73
2021/06/27 07:07:30;;;;;;;5.30;4.53;;;25.70;48.00;;;;;;5091822;28;20028;-73
2021/06/27 07:09:55;;;;;;;5.70;3.55;;;25.70;48.10;;;;;;5091735;28;20028;-73
2021/06/27 07:12:21;;;;;;;4.43;3.92;;;25.80;48.40;;;;;;5093131;28;20043;-73
2021/06/27 07:14:47;;;;;;;4.45;3.92;;;25.90;47.80;;;;;;5091262;28;20024;-73
2021/06/27 07:17:13;;;;;;;6.38;3.47;;;25.90;47.60;;;;;;5093083;28;20385;-73
2021/06/27 07:19:39;;;;;;;4.57;3.53;;;26.00;47.20;;;;;;5093016;28;20095;-73
2021/06/27 07:22:05;;;;;;;5.47;3.60;;;26.00;47.20;;;;;;5080340;28;20095;-73
2021/06/27 07:24:31;;;;;;;3.83;3.42;;;26.10;47.00;;;;;;5072800;28;20028;-72
2021/06/27 07:26:57;;;;;;;3.80;3.50;;;26.10;46.70;;;;;;5085226;28;20028;-72
2021/06/27 07:29:23;;;;;;;4.97;3.42;;;26.20;47.10;;;;;;5093027;28;20428;-73
2021/06/27 07:31:49;;;;;;;6.80;3.40;;;26.20;46.80;;;;;;5095025;28;20039;-73
2021/06/27 07:34:15;;;;;;;3.70;3.30;;;26.30;47.00;;;;;;5076860;28;20020;-72
2021/06/27 07:36:41;;;;;;;4.80;3.72;;;26.40;46.50;;;;;;5076827;28;20016;-73
2021/06/27 07:39:07;;;;;;;3.65;3.20;;;26.50;46.50;;;;;;5075462;28;20021;-73
2021/06/27 07:41:33;;;;;;;6.82;4.18;;;26.60;46.30;;;;;;5083959;28;20046;-72
2021/06/27 07:43:59;;;;;;;3.25;2.85;;;26.70;45.90;;;;;;5096942;28;20021;-72
2021/06/27 07:46:25;;;;;;;3.15;2.85;;;26.80;46.10;;;;;;5096810;28;20030;-72
2021/06/27 07:48:51;;;;;;;3.67;3.30;;;26.90;45.80;;;;;;5096768;28;20031;-73
2021/06/27 07:51:17;;;;;;;4.53;3.65;;;27.00;45.50;;;;;;5095436;28;20048;-73
2021/06/27 07:53:46;;;;;;;3.78;3.40;;;27.00;45.30;;;;;;5087316;28;20032;-73
2021/06/27 07:56:12;;;;;;;2.92;2.63;;;27.10;45.20;;;;;;5093370;28;20031;-73
2021/06/27 07:58:38;;;;;;;3.55;2.90;;;27.10;45.00;;;;;;5096266;28;20028;-73
2021/06/27 08:01:03;;;;;;;4.43;3.70;;;27.20;44.80;;;;;;5096558;28;20450;-73
2021/06/27 08:03:30;;;;;;;5.35;3.30;;;27.30;44.80;;;;;;5096448;28;20028;-73
2021/06/27 08:05:55;;;;;;;5.22;3.80;;;27.30;44.20;;;;;;5092838;28;20032;-73
2021/06/27 08:08:21;;;;;;;4.45;3.30;;;27.40;43.90;;;;;;5096154;28;20066;-73
2021/06/27 08:10:47;;;;;;;6.03;3.40;;;27.30;43.80;;;;;;5094746;28;20022;-73
2021/06/27 08:13:13;;;;;;;6.25;3.55;;;27.40;43.70;;;;;;5094883;28;20020;-72
2021/06/27 08:15:39;;;;;;;5.45;3.63;;;27.50;43.90;;;;;;5095032;28;20020;-73
2021/06/27 08:18:05;;;;;;;4.93;3.08;;;27.50;43.70;;;;;;5096490;28;20070;-73
2021/06/27 08:20:30;;;;;;;3.25;2.78;;;27.50;43.80;;;;;;5096122;28;20024;-73
2021/06/27 08:22:57;;;;;;;3.30;2.78;;;27.60;44.00;;;;;;5091815;28;20386;-73
2021/06/27 08:25:23;;;;;;;3.45;2.97;;;27.60;43.10;;;;;;5078822;28;20020;-73
2021/06/27 08:27:50;;;;;;;4.80;3.47;;;27.70;43.40;;;;;;5095904;28;20046;-73
2021/06/27 08:30:18;;;;;;;4.50;2.78;;;27.70;42.90;;;;;;5095753;28;20073;-73
2021/06/27 08:32:45;;;;;;;3.65;2.72;;;27.80;43.00;;;;;;5094432;28;20107;-73
2021/06/27 08:35:22;;;;;;;4.82;3.10;;;27.90;43.40;;;;;;5095082;28;20024;-73
2021/06/27 08:37:49;;;;;;;4.18;3.35;;;27.90;43.30;;;;;;5084431;28;20059;-72
2021/06/27 08:40:16;;;;;;;3.75;3.35;;;28.00;42.90;;;;;;5087975;28;20489;-73
2021/06/27 08:42:42;;;;;;;3.88;3.58;;;28.10;43.00;;;;;;5094197;28;20039;-72
2021/06/27 08:45:10;;;;;;;3.30;2.80;;;28.20;42.70;;;;;;5095583;28;20024;-73
2021/06/27 08:47:37;;;;;;;2.53;2.33;;;28.20;41.40;;;;;;5095379;28;20020;-73
2021/06/27 08:50:06;;;;;;;2.60;2.40;;;28.30;42.10;;;;;;5089451;28;20127;-73
2021/06/27 08:52:32;;;;;;;4.40;2.72;;;28.40;42.20;;;;;;5084087;28;20120;-72
2021/06/27 08:54:58;;;;;;;4.97;3.45;;;28.40;41.60;;;;;;5086148;28;20031;-72
2021/06/27 08:57:24;;;;;;;5.20;3.15;;;28.50;42.20;;;;;;5095720;28;20024;-73
2021/06/27 08:59:50;;;;;;;2.90;2.60;;;28.50;41.20;;;;;;5092617;28;20054;-73
2021/06/27 09:02:16;;;;;;;3.10;2.80;;;28.60;40.90;;;;;;5094992;28;20099;-72
2021/06/27 09:04:43;;;;;;;4.28;3.20;;;28.60;41.10;;;;;;5094991;28;20113;-73
2021/06/27 09:07:28;;;;;;;3.28;2.75;;;28.70;41.30;;;;;;5094993;28;20086;-73
2021/06/27 09:09:55;;;;;;;3.17;2.55;;;28.80;41.50;;;;;;5091873;28;20035;-73
2021/06/27 09:12:21;;;;;;;2.40;2.20;;;28.90;41.20;;;;;;5091007;28;20055;-72
2021/06/27 09:14:48;;;;;;;4.22;2.72;;;29.00;41.30;;;;;;5093644;28;20028;-73
2021/06/27 09:17:25;;;;;;;3.80;3.25;;;29.10;40.90;;;;;;5093741;28;20051;-73
2021/06/27 09:19:55;;;;;;;5.05;3.08;;;29.20;40.60;;;;;;5093805;28;20024;-73
2021/06/27 09:22:33;;;;;;;3.22;2.80;;;29.30;40.60;;;;;;5094922;28;20020;-73
2021/06/27 09:25:12;;;;;;;3.47;3.05;;;29.40;40.10;;;;;;5094880;28;20020;-73
2021/06/27 09:27:38;;;;;;;3.25;2.92;;;29.40;40.20;;;;;;5094790;28;20382;-73
2021/06/27 09:30:18;;;;;;;2.75;2.53;;;29.50;40.00;;;;;;5094886;28;20016;-71
2021/06/27 09:33:04;;;;;;;4.57;2.90;;;29.60;40.10;;;;;;5094734;28;20028;-72
2021/06/27 09:36:00;;;;;;;2.70;2.30;;;29.70;40.10;;;;;;5093480;28;20020;-71
2021/06/27 09:38:42;;;;;;;2.97;2.67;;;29.80;40.20;;;;;;5087542;28;20036;-72
2021/06/27 09:41:33;;;;;;;4.20;2.88;;;29.80;39.70;;;;;;5080322;28;20448;-73
2021/06/27 09:44:02;;;;;;;4.43;2.55;;;29.90;39.70;;;;;;5093572;28;20032;-73
2021/06/27 09:46:39;;;;;;;2.63;2.42;;;30.00;39.40;;;;;;5093286;28;20073;-72
2021/06/27 09:49:11;;;;;;;3.60;2.20;;;30.00;39.20;;;;;;5093249;28;20020;-72
2021/06/27 09:51:47;;;;;;;9.77;2.50;;;30.00;38.70;;;;;;5093114;28;20051;-72
2021/06/27 09:54:15;;;;;;;4.57;2.75;;;30.10;38.20;;;;;;5094320;28;20043;-72
2021/06/27 09:56:43;;;;;;;2.53;2.33;;;30.10;38.60;;;;;;5094596;28;20095;-72
2021/06/27 09:59:11;;;;;;;2.72;2.22;;;30.20;38.50;;;;;;5094646;28;20020;-72
2021/06/27 10:01:38;;;;;;;3.30;2.50;;;30.20;38.90;;;;;;5094423;28;20497;-73
2021/06/27 10:04:10;;;;;;;3.55;2.53;;;30.30;38.30;;;;;;5094720;28;20027;-73
2021/06/27 10:06:47;;;;;;;3.35;2.35;;;30.40;38.60;;;;;;5093286;28;20031;-74
2021/06/27 10:09:19;;;;;;;4.05;2.35;;;30.50;38.50;;;;;;5091275;28;20024;-72
2021/06/27 10:12:14;;;;;;;3.77;2.97;;;30.60;38.00;;;;;;5072805;28;20020;-72
2021/06/27 10:14:50;;;;;;;3.00;2.05;;;30.70;38.00;;;;;;5075168;28;20024;-72
2021/06/27 10:17:25;;;;;;;3.05;2.22;;;30.70;38.10;;;;;;5072453;28;20033;-72
2021/06/27 10:19:52;;;;;;;2.35;2.15;;;30.70;36.10;;;;;;5073711;28;20027;-72
2021/06/27 10:22:20;;;;;;;2.17;1.98;;;30.70;35.80;;;;;;5073474;28;20119;-72
2021/06/27 10:24:45;;;;;;;2.03;1.90;;;30.70;36.00;;;;;;5073548;28;20020;-71
2021/06/27 10:27:13;;;;;;;2.95;2.65;;;30.60;36.30;;;;;;5072174;28;20031;-72
2021/06/27 10:29:43;;;;;;;4.18;2.17;;;30.60;36.50;;;;;;5072254;28;20104;-72
2021/06/27 10:32:09;;;;;;;2.85;2.00;;;30.60;36.60;;;;;;5073440;28;20029;-72
2021/06/27 10:34:36;;;;;;;2.47;2.28;;;30.60;36.90;;;;;;5072191;28;20147;-72
2021/06/27 10:37:19;;;;;;;3.25;2.20;;;30.70;37.30;;;;;;5073472;28;20020;-72
2021/06/27 10:39:58;;;;;;;2.58;2.30;;;30.70;36.90;;;;;;5072489;28;20032;-72
2021/06/27 10:42:48;;;;;;;2.20;2.00;;;30.70;37.00;;;;;;5072091;28;20108;-72
2021/06/27 10:45:19;;;;;;;3.28;2.60;;;30.70;37.20;;;;;;5073270;28;20063;-72
2021/06/27 10:47:46;;;;;;;4.13;3.03;;;30.80;37.30;;;;;;5071924;28;20025;-72
2021/06/27 10:50:14;;;;;;;2.97;2.20;;;30.80;37.10;;;;;;5072953;28;20068;-72
2021/06/27 10:52:52;;;;;;;3.15;2.15;;;30.90;36.60;;;;;;5071855;28;20021;-72
2021/06/27 10:55:20;;;;;;;1.73;1.58;;;30.90;36.00;;;;;;5073159;28;20017;-72
2021/06/27 10:57:57;;;;;;;2.20;2.00;;;31.00;35.00;;;;;;5071867;28;20142;-72
2021/06/27 11:00:24;;;;;;;2.45;2.25;;;31.00;35.10;;;;;;5083674;28;20099;-72
2021/06/27 11:02:50;;;;;;;4.07;2.25;;;31.00;35.10;;;;;;5093125;28;20043;-72
2021/06/27 11:05:28;;;;;;;2.40;2.20;;;31.00;35.30;;;;;;5092354;28;20024;-72
2021/06/27 11:07:56;;;;;;;3.38;2.88;;;31.10;35.30;;;;;;5093104;28;20028;-72
2021/06/27 11:10:21;;;;;;;2.20;2.00;;;31.10;34.20;;;;;;5088714;28;20023;-72
2021/06/27 11:12:59;;;;;;;6.72;4.75;;;31.10;35.10;;;;;;5091649;28;20012;-72
2021/06/27 11:15:34;;;;;;;5.53;4.05;;;31.10;34.60;;;;;;5091839;28;20390;-72
2021/06/27 11:18:01;;;;;;;2.75;2.28;;;31.10;34.10;;;;;;5091736;28;20481;-72
2021/06/27 11:20:30;;;;;;;2.65;2.00;;;31.20;34.30;;;;;;5091756;28;20035;-72
2021/06/27 11:22:57;;;;;;;2.00;1.80;;;31.20;33.40;;;;;;5092984;28;20553;-72
2021/06/27 11:25:37;;;;;;;3.90;3.05;;;31.20;33.60;;;;;;5092959;28;20028;-72
2021/06/27 11:28:21;;;;;;;3.03;2.20;;;31.30;34.10;;;;;;5092921;28;20475;-72
2021/06/27 11:31:23;;;;;;;2.40;2.00;;;31.30;33.90;;;;;;5091684;28;20028;-72
2021/06/27 11:34:20;;;;;;;2.03;1.83;;;31.30;34.30;;;;;;5092786;28;20384;-72
2021/06/27 11:36:54;;;;;;;11.15;1.92;;;31.40;33.10;;;;;;5092881;28;20043;-72
2021/06/27 11:39:45;;;;;;;1.90;1.70;;;31.40;31.40;;;;;;5089582;28;20024;-72
2021/06/27 11:42:27;;;;;;;1.92;1.42;;;31.30;31.30;;;;;;5091615;28;20093;-72
2021/06/27 11:45:08;;;;;;;1.70;1.60;;;31.30;31.50;;;;;;5092726;28;20020;-72
2021/06/27 11:47:37;;;;;;;2.60;1.67;;;31.30;32.30;;;;;;5090638;28;20067;-72
2021/06/27 11:50:21;;;;;;;2.25;1.65;;;31.30;32.40;;;;;;5092548;28;20098;-72
2021/06/27 11:52:52;;;;;;;;;;;31.30;31.40;;;;;;5093011;28;20466;-73
2021/06/27 11:55:23;;;;;;;1.73;1.30;;;31.30;32.70;;;;;;5092743;28;19943;-72
2021/06/27 11:57:48;;;;;;;1.83;1.50;;;31.40;30.50;;;;;;5092706;28;20055;-72
2021/06/27 12:00:15;;;;;;;1.92;1.73;;;31.40;30.30;;;;;;5092677;28;20051;-73
2021/06/27 12:02:42;;;;;;;4.15;1.50;;;31.40;30.00;;;;;;5092641;28;20051;-72
2021/06/27 12:05:10;;;;;;;2.45;2.00;;;31.50;30.30;;;;;;5092644;28;20099;-72
2021/06/27 12:07:47;;;;;;;1.60;1.50;;;31.50;31.30;;;;;;5092592;28;20028;-72
2021/06/27 12:10:15;;;;;;;1.92;1.70;;;31.50;31.10;;;;;;5092677;28;20115;-72
2021/06/27 12:12:49;;;;;;;1.90;1.70;;;31.60;31.40;;;;;;5092554;28;20020;-72
2021/06/27 12:15:15;;;;;;;2.67;1.80;;;31.60;30.90;;;;;;5092750;28;20020;-72
2021/06/27 12:17:50;;;;;;;4.50;1.95;;;31.70;31.30;;;;;;5096229;28;20024;-72
2021/06/27 12:20:17;;;;;;;3.08;1.60;;;31.70;31.00;;;;;;5094984;28;20038;-72
2021/06/27 12:22:54;;;;;;;1.65;1.52;;;31.80;30.90;;;;;;5096254;28;20380;-72
2021/06/27 12:25:25;;;;;;;2.75;1.83;;;31.90;30.40;;;;;;5096178;28;20027;-73
2021/06/27 12:27:53;;;;;;;3.70;1.38;;;31.90;28.90;;;;;;5096024;28;20024;-72
2021/06/27 12:30:41;;;;;;;1.50;1.33;;;31.90;29.10;;;;;;5096115;28;20040;-72
2021/06/27 12:33:10;;;;;;;1.90;1.48;;;31.90;29.40;;;;;;5094989;28;20434;-72
2021/06/27 12:35:40;;;;;;;1.50;1.40;;;31.90;27.80;;;;;;5095976;28;20022;-72
2021/06/27 12:38:08;;;;;;;1.35;1.10;;;31.90;28.30;;;;;;5095936;28;20054;-73
2021/06/27 12:40:38;;;;;;;1.20;1.10;;;31.90;28.50;;;;;;5094910;28;20047;-72
2021/06/27 12:43:17;;;;;;;1.60;1.40;;;31.90;28.10;;;;;;5096173;28;20020;-72
2021/06/27 12:45:42;;;;;;;1.67;1.50;;;32.00;28.50;;;;;;5095774;28;20023;-72
2021/06/27 12:48:12;;;;;;;1.00;1.00;;;32.00;27.90;;;;;;5095719;28;20066;-72
2021/06/27 12:50:39;;;;;;;1.23;0.98;;;32.00;26.30;;;;;;5095372;28;20044;-72
2021/06/27 12:53:06;;;;;;;1.15;0.80;;;32.10;27.00;;;;;;5094349;28;20028;-72